Time;durP1;ratioP1;P1;durP2;ratioP2;P2;SDS_P1;SDS_P2;PMS_P1;PMS_P2;Temp;Humidity;BMP_temperature;BMP_pressure;BME280_temperature;BME280_humidity;BME280_pressure;Samples;Min_cycle;Max_cycle;Signal;HPM_P1;HPM_P2
2022/10/31 00:02:03;;;;;;;6.80;4.83;;;;;;;;;;4979404;28;20853;-56
2022/10/31 00:04:29;;;;;;;7.27;3.73;;;;;;;;;;4956099;28;21010;-54
2022/10/31 00:06:55;;;;;;;7.10;5.07;;;;;;;;;;4984740;28;20523;-55
2022/10/31 00:09:21;;;;;;;7.97;5.03;;;;;;;;;;4976296;28;20499;-54
2022/10/31 00:11:47;;;;;;;7.17;3.47;;;;;;;;;;4979697;28;20548;-54
2022/10/31 00:14:13;;;;;;;10.23;3.97;;;;;;;;;;4959770;28;20286;-53
2022/10/31 00:16:41;;;;;;;5.20;3.67;;;;;;;;;;4987278;28;21061;-56
2022/10/31 00:19:07;;;;;;;5.63;3.50;;;;;;;;;;4964021;28;20429;-54
2022/10/31 00:21:33;;;;;;;5.90;3.73;;;;;;;;;;4984336;28;20437;-55
2022/10/31 00:23:59;;;;;;;8.87;4.10;;;;;;;;;;4985414;28;20501;-56
2022/10/31 00:26:26;;;;;;;8.73;3.10;;;;;;;;;;4986176;28;20515;-55
2022/10/31 00:28:52;;;;;;;5.70;3.47;;;;;;;;;;4929622;28;20480;-55
2022/10/31 00:31:18;;;;;;;7.30;4.10;;;;;;;;;;4966354;28;20814;-55
2022/10/31 00:33:44;;;;;;;5.67;3.80;;;;;;;;;;4974326;28;20433;-54
2022/10/31 00:36:14;;;;;;;6.60;4.10;;;;;;;;;;4964538;28;20516;-55
2022/10/31 00:38:40;;;;;;;5.27;4.00;;;;;;;;;;4974934;28;20440;-54
2022/10/31 00:41:06;;;;;;;6.03;5.13;;;;;;;;;;4959139;28;20465;-55
2022/10/31 00:43:32;;;;;;;9.60;3.90;;;;;;;;;;4981207;28;20451;-55
2022/10/31 00:45:58;;;;;;;6.27;3.50;;;;;;;;;;4957227;28;20554;-55
2022/10/31 00:48:24;;;;;;;4.50;3.47;;;;;;;;;;4978847;28;20559;-55
2022/10/31 00:50:50;;;;;;;6.03;3.43;;;;;;;;;;4931156;28;20449;-55
2022/10/31 00:53:16;;;;;;;6.03;4.10;;;;;;;;;;4978326;28;20946;-54
2022/10/31 00:55:41;;;;;;;6.47;4.60;;;;;;;;;;4979661;28;21188;-55
2022/10/31 00:58:07;;;;;;;6.60;3.80;;;;;;;;;;4970730;28;20417;-55
2022/10/31 01:00:37;;;;;;;6.10;3.60;;;;;;;;;;4953051;28;20459;-56
2022/10/31 01:03:03;;;;;;;6.73;3.93;;;;;;;;;;4979898;28;21490;-54
2022/10/31 01:05:29;;;;;;;9.60;3.60;;;;;;;;;;4958637;28;20539;-55
2022/10/31 01:07:55;;;;;;;4.50;3.23;;;;;;;;;;4975542;28;20472;-55
2022/10/31 01:10:21;;;;;;;5.63;3.17;;;;;;;;;;4976927;28;20433;-55
2022/10/31 01:12:48;;;;;;;11.47;3.83;;;;;;;;;;4977487;28;20472;-56
2022/10/31 01:15:14;;;;;;;13.50;4.30;;;;;;;;;;4964877;28;20479;-55
2022/10/31 01:17:40;;;;;;;7.77;3.70;;;;;;;;;;4967552;28;20926;-56
2022/10/31 01:20:07;;;;;;;7.40;3.67;;;;;;;;;;4953619;28;20437;-55
2022/10/31 01:22:33;;;;;;;4.83;3.77;;;;;;;;;;4981936;28;20432;-56
2022/10/31 01:24:59;;;;;;;7.17;3.30;;;;;;;;;;4979641;28;20440;-55
2022/10/31 01:27:25;;;;;;;4.43;3.30;;;;;;;;;;4984103;28;20507;-54
2022/10/31 01:29:51;;;;;;;4.00;3.53;;;;;;;;;;4954574;28;22201;-55
2022/10/31 01:32:16;;;;;;;7.93;3.17;;;;;;;;;;4975360;28;20448;-54
2022/10/31 01:34:43;;;;;;;4.33;3.20;;;;;;;;;;4941168;28;20818;-54
2022/10/31 01:37:09;;;;;;;3.13;2.83;;;;;;;;;;4981301;28;20448;-54
2022/10/31 01:39:35;;;;;;;8.53;3.57;;;;;;;;;;4959323;28;20503;-56
2022/10/31 01:42:00;;;;;;;6.87;3.07;;;;;;;;;;4981188;28;20618;-55
2022/10/31 01:44:26;;;;;;;6.30;3.90;;;;;;;;;;4977282;28;22668;-55
2022/10/31 01:47:04;;;;;;;6.20;2.87;;;;;;;;;;4982659;28;20571;-59
2022/10/31 01:49:35;;;;;;;10.00;2.97;;;;;;;;;;4954074;28;20563;-55
2022/10/31 01:52:02;;;;;;;6.33;3.00;;;;;;;;;;4976311;28;20437;-55
2022/10/31 01:54:29;;;;;;;4.43;3.40;;;;;;;;;;4958815;28;20506;-54
2022/10/31 01:56:55;;;;;;;9.23;3.23;;;;;;;;;;4979690;28;20444;-57
2022/10/31 01:59:21;;;;;;;11.70;3.30;;;;;;;;;;4980069;28;20976;-56
2022/10/31 02:01:48;;;;;;;5.23;3.53;;;;;;;;;;4977901;28;20444;-56
2022/10/31 02:04:14;;;;;;;5.60;3.67;;;;;;;;;;4965777;28;21207;-56
2022/10/31 02:06:47;;;;;;;5.70;3.50;;;;;;;;;;4964744;28;20477;-56
2022/10/31 02:09:39;;;;;;;5.43;2.97;;;;;;;;;;4960621;28;21326;-55
2022/10/31 02:12:05;;;;;;;8.60;3.67;;;;;;;;;;4954839;28;20491;-55
2022/10/31 02:14:31;;;;;;;8.40;3.20;;;;;;;;;;4983011;28;20453;-55
2022/10/31 02:16:58;;;;;;;6.23;3.07;;;;;;;;;;4989011;28;20542;-54
2022/10/31 02:19:32;;;;;;;5.43;2.80;;;;;;;;;;4981566;28;20478;-54
2022/10/31 02:22:02;;;;;;;8.50;3.30;;;;;;;;;;4950452;28;20455;-55
2022/10/31 02:24:53;;;;;;;4.77;2.97;;;;;;;;;;4976110;28;20445;-56
2022/10/31 02:27:27;;;;;;;3.83;3.30;;;;;;;;;;4963022;28;20489;-56
2022/10/31 02:29:55;;;;;;;5.77;3.07;;;;;;;;;;4972903;28;20997;-56
2022/10/31 02:32:23;;;;;;;8.20;3.07;;;;;;;;;;4964427;28;20456;-56
2022/10/31 02:35:12;;;;;;;5.67;2.90;;;;;;;;;;4971731;28;20509;-54
2022/10/31 02:37:39;;;;;;;4.20;2.80;;;;;;;;;;4977984;28;21201;-55
2022/10/31 02:40:23;;;;;;;8.43;3.40;;;;;;;;;;4959638;28;20452;-55
2022/10/31 02:42:56;;;;;;;6.43;2.60;;;;;;;;;;4979384;28;20432;-55
2022/10/31 02:45:32;;;;;;;4.03;3.10;;;;;;;;;;4978583;28;21198;-55
2022/10/31 02:47:59;;;;;;;3.80;2.77;;;;;;;;;;4964962;28;20467;-55
2022/10/31 02:50:32;;;;;;;5.17;3.80;;;;;;;;;;4996628;28;20906;-55
2022/10/31 02:52:58;;;;;;;4.43;2.80;;;;;;;;;;4968930;28;20456;-56
2022/10/31 02:55:27;;;;;;;4.07;3.27;;;;;;;;;;4982322;28;20436;-56
2022/10/31 02:57:54;;;;;;;3.50;3.13;;;;;;;;;;4960053;28;20473;-56
2022/10/31 03:00:20;;;;;;;6.27;2.77;;;;;;;;;;4982316;28;20532;-56
2022/10/31 03:03:05;;;;;;;8.80;3.40;;;;;;;;;;4974954;28;20497;-56
2022/10/31 03:05:37;;;;;;;5.13;3.07;;;;;;;;;;4986700;28;20472;-55
2022/10/31 03:08:03;;;;;;;6.10;3.20;;;;;;;;;;4976650;28;20433;-55
2022/10/31 03:10:40;;;;;;;5.53;2.70;;;;;;;;;;4984812;28;20875;-55
2022/10/31 03:13:13;;;;;;;5.20;3.37;;;;;;;;;;4961780;28;20984;-56
2022/10/31 03:15:41;;;;;;;9.30;3.33;;;;;;;;;;4986458;28;20431;-56
2022/10/31 03:18:08;;;;;;;5.97;2.77;;;;;;;;;;4957403;28;20456;-55
2022/10/31 03:20:36;;;;;;;5.80;3.10;;;;;;;;;;4986125;28;20983;-56
2022/10/31 03:23:03;;;;;;;5.07;3.07;;;;;;;;;;4961850;28;20456;-56
2022/10/31 03:25:29;;;;;;;3.87;2.90;;;;;;;;;;4988320;28;20492;-57
2022/10/31 03:27:55;;;;;;;5.50;3.37;;;;;;;;;;4964296;28;21780;-58
2022/10/31 03:30:21;;;;;;;6.17;3.60;;;;;;;;;;4984213;28;20441;-55
2022/10/31 03:32:51;;;;;;;7.47;3.40;;;;;;;;;;4978882;28;20444;-56
2022/10/31 03:35:18;;;;;;;8.23;3.40;;;;;;;;;;4978415;28;20535;-56
2022/10/31 03:37:44;;;;;;;5.83;2.53;;;;;;;;;;4981447;28;20453;-57
2022/10/31 03:40:10;;;;;;;7.07;3.20;;;;;;;;;;4983365;28;20458;-56
2022/10/31 03:42:38;;;;;;;5.17;3.10;;;;;;;;;;4944362;28;20448;-56
2022/10/31 03:45:27;;;;;;;6.30;2.97;;;;;;;;;;4988404;28;20433;-54
2022/10/31 03:47:53;;;;;;;6.33;3.30;;;;;;;;;;4960673;28;20452;-56
2022/10/31 03:50:19;;;;;;;4.90;3.00;;;;;;;;;;4984903;28;20442;-56
2022/10/31 03:52:47;;;;;;;4.97;2.73;;;;;;;;;;4982656;28;20684;-56
2022/10/31 03:55:24;;;;;;;7.27;3.93;;;;;;;;;;4980934;28;20463;-56
2022/10/31 03:57:56;;;;;;;3.97;2.73;;;;;;;;;;4950917;28;20810;-56
2022/10/31 04:00:22;;;;;;;4.03;3.47;;;;;;;;;;4981910;28;21121;-56
2022/10/31 04:02:56;;;;;;;6.10;2.80;;;;;;;;;;4963473;28;20440;-56
2022/10/31 04:05:22;;;;;;;9.60;4.13;;;;;;;;;;4979519;28;20441;-56
2022/10/31 04:07:49;;;;;;;12.60;3.60;;;;;;;;;;4953108;28;20454;-55
2022/10/31 04:10:16;;;;;;;8.00;3.53;;;;;;;;;;4969019;28;20194;-58
2022/10/31 04:12:43;;;;;;;5.63;3.27;;;;;;;;;;4965291;28;20452;-62
2022/10/31 04:15:09;;;;;;;5.20;3.13;;;;;;;;;;4944024;28;20544;-57
2022/10/31 04:17:36;;;;;;;7.00;3.30;;;;;;;;;;4978104;28;21022;-57
2022/10/31 04:20:03;;;;;;;4.77;2.97;;;;;;;;;;4958880;28;20445;-58
2022/10/31 04:22:29;;;;;;;4.10;3.00;;;;;;;;;;4981866;28;25196;-56
2022/10/31 04:24:55;;;;;;;6.13;3.50;;;;;;;;;;4981443;28;20986;-57
2022/10/31 04:27:20;;;;;;;14.70;3.47;;;;;;;;;;4977831;28;20489;-56
2022/10/31 04:29:46;;;;;;;8.03;3.77;;;;;;;;;;4945228;28;20480;-55
2022/10/31 04:32:12;;;;;;;5.90;3.73;;;;;;;;;;4976233;28;20439;-56
2022/10/31 04:34:38;;;;;;;5.60;2.97;;;;;;;;;;4944794;28;20442;-56
2022/10/31 04:37:04;;;;;;;5.40;3.53;;;;;;;;;;4982472;28;20472;-56
2022/10/31 04:39:30;;;;;;;3.60;3.27;;;;;;;;;;4956132;28;20512;-55
2022/10/31 04:41:56;;;;;;;9.10;3.70;;;;;;;;;;4975905;28;20201;-54
2022/10/31 04:44:22;;;;;;;4.53;2.70;;;;;;;;;;4936427;28;20510;-54
2022/10/31 04:46:48;;;;;;;5.27;3.10;;;;;;;;;;4986795;28;20480;-56
2022/10/31 04:49:14;;;;;;;3.90;3.07;;;;;;;;;;4959545;28;20449;-56
2022/10/31 04:51:40;;;;;;;4.33;3.03;;;;;;;;;;4975056;28;20456;-55
2022/10/31 04:54:06;;;;;;;11.00;3.37;;;;;;;;;;4978294;28;20581;-54
2022/10/31 04:56:32;;;;;;;8.17;4.30;;;;;;;;;;4981251;28;20539;-57
2022/10/31 04:58:58;;;;;;;7.50;3.30;;;;;;;;;;4954446;28;20522;-53
2022/10/31 05:01:24;;;;;;;7.30;3.93;;;;;;;;;;4947337;28;20473;-55
2022/10/31 05:03:50;;;;;;;6.13;3.97;;;;;;;;;;4973826;28;20958;-56
2022/10/31 05:06:16;;;;;;;4.53;3.37;;;;;;;;;;4963837;28;20482;-55
2022/10/31 05:08:42;;;;;;;5.97;3.30;;;;;;;;;;4974259;28;20440;-58
2022/10/31 05:11:08;;;;;;;5.77;3.10;;;;;;;;;;4958775;28;20524;-56
2022/10/31 05:13:34;;;;;;;4.30;3.40;;;;;;;;;;4988254;28;20444;-59
2022/10/31 05:16:00;;;;;;;11.23;4.83;;;;;;;;;;4946354;28;20445;-56
2022/10/31 05:18:26;;;;;;;6.50;3.60;;;;;;;;;;4979476;28;20446;-55
2022/10/31 05:20:52;;;;;;;7.70;3.60;;;;;;;;;;4982545;28;20455;-54
2022/10/31 05:23:18;;;;;;;5.13;2.70;;;;;;;;;;4962732;28;20453;-56
2022/10/31 05:25:44;;;;;;;4.03;3.47;;;;;;;;;;4986256;28;20905;-55
2022/10/31 05:28:09;;;;;;;8.43;4.17;;;;;;;;;;4976482;28;20533;-57
2022/10/31 05:30:35;;;;;;;6.60;3.20;;;;;;;;;;4987091;28;20834;-53
2022/10/31 05:33:01;;;;;;;6.50;3.77;;;;;;;;;;4960882;28;21569;-55
2022/10/31 05:35:28;;;;;;;7.33;3.10;;;;;;;;;;4986465;28;20456;-55
2022/10/31 05:37:54;;;;;;;9.13;5.13;;;;;;;;;;4957063;28;20288;-56
2022/10/31 05:40:20;;;;;;;8.57;4.40;;;;;;;;;;4981443;28;21021;-55
2022/10/31 05:42:46;;;;;;;6.87;4.43;;;;;;;;;;4960520;28;20853;-57
2022/10/31 05:45:13;;;;;;;4.47;3.57;;;;;;;;;;4985171;28;21207;-56
2022/10/31 05:47:39;;;;;;;6.40;3.37;;;;;;;;;;4948112;28;20835;-55
2022/10/31 05:50:05;;;;;;;5.40;3.80;;;;;;;;;;4987485;28;20547;-55
2022/10/31 05:52:32;;;;;;;6.30;3.90;;;;;;;;;;4983940;28;20443;-56
2022/10/31 05:54:57;;;;;;;7.53;3.83;;;;;;;;;;4986872;28;20450;-56
2022/10/31 05:57:24;;;;;;;5.70;3.60;;;;;;;;;;4981297;28;20437;-57
2022/10/31 05:59:52;;;;;;;6.60;4.00;;;;;;;;;;4989835;28;20455;-56
2022/10/31 06:02:18;;;;;;;6.33;4.17;;;;;;;;;;4951428;28;20454;-56
2022/10/31 06:04:44;;;;;;;5.93;4.20;;;;;;;;;;4983982;28;20544;-56
2022/10/31 06:07:10;;;;;;;8.43;4.50;;;;;;;;;;4980261;28;20562;-56
2022/10/31 06:09:36;;;;;;;8.17;4.90;;;;;;;;;;4984225;28;20461;-54
2022/10/31 06:12:02;;;;;;;6.60;4.77;;;;;;;;;;4961542;28;20491;-56
2022/10/31 06:14:28;;;;;;;10.53;5.60;;;;;;;;;;4986090;28;20448;-56
2022/10/31 06:16:57;;;;;;;16.80;6.57;;;;;;;;;;4945692;28;20968;-55
2022/10/31 06:19:23;;;;;;;13.73;8.83;;;;;;;;;;4989285;28;20425;-56
2022/10/31 06:21:48;;;;;;;11.43;7.17;;;;;;;;;;4965297;28;20861;-56
2022/10/31 06:24:14;;;;;;;10.23;6.13;;;;;;;;;;4989745;28;21080;-54
2022/10/31 06:26:41;;;;;;;10.50;6.77;;;;;;;;;;4957518;28;20516;-56
2022/10/31 06:29:07;;;;;;;11.67;5.97;;;;;;;;;;4983993;28;20443;-56
2022/10/31 06:31:32;;;;;;;12.67;6.23;;;;;;;;;;4981631;28;20445;-55
2022/10/31 06:33:58;;;;;;;10.40;5.90;;;;;;;;;;4985348;28;20436;-56
2022/10/31 06:36:25;;;;;;;10.23;5.50;;;;;;;;;;4962321;28;20956;-55
2022/10/31 06:38:50;;;;;;;12.70;6.60;;;;;;;;;;4987107;28;20441;-56
2022/10/31 06:41:17;;;;;;;13.17;7.37;;;;;;;;;;4967326;28;20530;-56
2022/10/31 06:43:43;;;;;;;20.20;8.07;;;;;;;;;;4979667;28;20440;-54
2022/10/31 06:46:09;;;;;;;19.57;8.07;;;;;;;;;;4969556;28;21863;-55
2022/10/31 06:48:35;;;;;;;15.17;7.00;;;;;;;;;;4984430;28;20451;-56
2022/10/31 06:51:34;;;;;;;18.10;6.40;;;;;;;;;;4973873;28;20449;-56
2022/10/31 06:54:00;;;;;;;11.23;6.33;;;;;;;;;;4969880;28;20426;-54
2022/10/31 06:56:26;;;;;;;12.93;6.87;;;;;;;;;;4986845;28;20929;-55
2022/10/31 06:58:52;;;;;;;11.10;6.37;;;;;;;;;;4983566;28;20438;-56
2022/10/31 07:01:18;;;;;;;10.10;6.70;;;;;;;;;;4982902;28;20472;-57
2022/10/31 07:03:44;;;;;;;15.80;8.30;;;;;;;;;;4962490;28;20441;-57
2022/10/31 07:06:10;;;;;;;16.20;7.60;;;;;;;;;;4988542;28;20524;-57
2022/10/31 07:08:36;;;;;;;16.60;8.00;;;;;;;;;;4963149;28;20441;-57
2022/10/31 07:11:02;;;;;;;11.10;6.70;;;;;;;;;;4985776;28;20456;-57
2022/10/31 07:13:28;;;;;;;10.50;7.07;;;;;;;;;;4984324;28;20464;-55
2022/10/31 07:15:54;;;;;;;12.03;7.47;;;;;;;;;;4988947;28;20473;-56
2022/10/31 07:18:21;;;;;;;10.80;6.70;;;;;;;;;;4965570;28;20547;-57
2022/10/31 07:20:47;;;;;;;6.53;5.07;;;;;;;;;;4992103;28;21198;-57
2022/10/31 07:23:13;;;;;;;8.23;4.43;;;;;;;;;;4949894;28;20839;-56
2022/10/31 07:25:39;;;;;;;8.30;5.40;;;;;;;;;;4961387;28;20984;-55
2022/10/31 07:28:05;;;;;;;7.07;4.90;;;;;;;;;;4990570;28;20436;-55
2022/10/31 07:30:31;;;;;;;8.33;4.40;;;;;;;;;;4976259;28;20468;-57
2022/10/31 07:32:57;;;;;;;10.50;4.90;;;;;;;;;;4984886;28;20966;-56
2022/10/31 07:35:25;;;;;;;6.10;4.90;;;;;;;;;;4964906;28;20437;-57
2022/10/31 07:37:51;;;;;;;6.57;4.10;;;;;;;;;;4980043;28;20441;-57
2022/10/31 07:40:18;;;;;;;9.30;4.30;;;;;;;;;;4965171;28;21378;-56
2022/10/31 07:42:44;;;;;;;14.63;5.37;;;;;;;;;;4977104;28;20942;-56
2022/10/31 07:45:11;;;;;;;7.93;4.30;;;;;;;;;;4976338;28;20421;-56
2022/10/31 07:47:40;;;;;;;8.53;4.70;;;;;;;;;;4973256;28;20478;-56
2022/10/31 07:50:07;;;;;;;11.03;5.10;;;;;;;;;;4978845;28;21003;-56
2022/10/31 07:52:33;;;;;;;7.00;4.60;;;;;;;;;;4974044;28;20812;-55
2022/10/31 07:55:03;;;;;;;10.73;5.00;;;;;;;;;;4977328;28;20476;-55
2022/10/31 07:57:29;;;;;;;7.87;4.77;;;;;;;;;;4962466;28;20965;-54
2022/10/31 07:59:55;;;;;;;5.40;4.30;;;;;;;;;;4985402;28;20432;-56
2022/10/31 08:02:21;;;;;;;6.23;4.20;;;;;;;;;;4968488;28;20441;-56
2022/10/31 08:04:47;;;;;;;8.97;5.20;;;;;;;;;;4986737;28;20997;-54
2022/10/31 08:07:13;;;;;;;7.73;4.47;;;;;;;;;;4977262;28;20491;-54
2022/10/31 08:09:39;;;;;;;11.63;4.70;;;;;;;;;;4970815;28;20504;-56
2022/10/31 08:12:05;;;;;;;5.50;4.73;;;;;;;;;;4952178;28;20429;-54
2022/10/31 08:14:31;;;;;;;4.53;4.13;;;;;;;;;;4983668;28;20572;-54
2022/10/31 08:16:57;;;;;;;8.10;4.47;;;;;;;;;;4984276;28;20421;-54
2022/10/31 08:19:23;;;;;;;8.57;6.03;;;;;;;;;;4989626;28;20185;-53
2022/10/31 08:21:52;;;;;;;5.80;4.33;;;;;;;;;;4963177;28;20533;-55
2022/10/31 08:24:18;;;;;;;9.00;4.77;;;;;;;;;;4986781;28;20444;-55
2022/10/31 08:26:44;;;;;;;8.77;5.03;;;;;;;;;;4947280;28;20480;-54
2022/10/31 08:29:10;;;;;;;7.67;4.60;;;;;;;;;;4983068;28;20428;-54
2022/10/31 08:31:36;;;;;;;7.60;5.00;;;;;;;;;;4956665;28;20468;-56
2022/10/31 08:34:02;;;;;;;8.50;5.23;;;;;;;;;;4986566;28;20441;-55
2022/10/31 08:36:28;;;;;;;8.50;5.10;;;;;;;;;;4960838;28;20440;-54
2022/10/31 08:38:54;;;;;;;16.60;6.17;;;;;;;;;;4991819;28;21143;-56
2022/10/31 08:41:20;;;;;;;8.70;5.50;;;;;;;;;;4964755;28;20816;-55
2022/10/31 08:43:46;;;;;;;8.13;4.87;;;;;;;;;;4985786;28;20441;-55
2022/10/31 08:46:12;;;;;;;10.07;5.67;;;;;;;;;;4958026;28;20484;-55
2022/10/31 08:48:38;;;;;;;7.70;5.53;;;;;;;;;;4991908;28;20447;-56
2022/10/31 08:51:04;;;;;;;6.70;4.10;;;;;;;;;;4960366;28;20968;-57
2022/10/31 08:53:30;;;;;;;5.57;4.77;;;;;;;;;;4989126;28;20445;-54
2022/10/31 08:55:56;;;;;;;5.10;4.57;;;;;;;;;;4979374;28;20474;-54
2022/10/31 08:58:22;;;;;;;9.03;4.80;;;;;;;;;;4991328;28;20434;-56
2022/10/31 09:00:48;;;;;;;7.40;5.33;;;;;;;;;;4944927;28;21450;-54
2022/10/31 09:03:15;;;;;;;11.17;5.30;;;;;;;;;;4968872;28;20464;-54
2022/10/31 09:05:41;;;;;;;8.30;5.67;;;;;;;;;;4977731;28;20473;-54
2022/10/31 09:08:08;;;;;;;8.50;5.00;;;;;;;;;;4966587;28;21642;-55
2022/10/31 09:10:34;;;;;;;6.50;5.30;;;;;;;;;;4973960;28;20469;-54
2022/10/31 09:13:01;;;;;;;12.87;5.00;;;;;;;;;;4977989;28;20433;-54
2022/10/31 09:15:27;;;;;;;6.60;4.70;;;;;;;;;;4973147;28;20449;-55
2022/10/31 09:17:53;;;;;;;11.10;6.17;;;;;;;;;;4980000;28;20456;-55
2022/10/31 09:20:19;;;;;;;8.47;4.80;;;;;;;;;;4964745;28;20436;-53
2022/10/31 09:22:45;;;;;;;11.20;5.07;;;;;;;;;;4982113;28;20444;-54
2022/10/31 09:25:11;;;;;;;8.20;4.70;;;;;;;;;;4963983;28;20448;-55
2022/10/31 09:27:37;;;;;;;9.83;5.30;;;;;;;;;;4980524;28;20560;-53
2022/10/31 09:30:04;;;;;;;10.33;5.80;;;;;;;;;;4967901;28;21049;-54
2022/10/31 09:32:29;;;;;;;9.00;5.73;;;;;;;;;;4988679;28;21992;-54
2022/10/31 09:34:55;;;;;;;5.23;4.70;;;;;;;;;;4940386;28;20519;-53
2022/10/31 09:37:21;;;;;;;7.90;5.17;;;;;;;;;;4982643;28;20182;-55
2022/10/31 09:39:48;;;;;;;10.23;5.03;;;;;;;;;;4956181;28;20433;-54
2022/10/31 09:42:14;;;;;;;13.93;6.40;;;;;;;;;;4978131;28;20813;-54
2022/10/31 09:44:44;;;;;;;6.80;5.60;;;;;;;;;;4983153;28;20989;-55
2022/10/31 09:47:23;;;;;;;8.40;7.23;;;;;;;;;;4975524;28;20469;-56
2022/10/31 09:49:52;;;;;;;8.50;5.93;;;;;;;;;;4970511;28;21060;-54
2022/10/31 09:52:24;;;;;;;7.93;5.90;;;;;;;;;;4985174;28;20442;-55
2022/10/31 09:54:57;;;;;;;8.60;6.27;;;;;;;;;;4960970;28;20450;-54
2022/10/31 09:57:25;;;;;;;7.03;5.67;;;;;;;;;;4983175;28;20433;-53
2022/10/31 09:59:51;;;;;;;10.60;6.23;;;;;;;;;;4953735;28;20476;-54
2022/10/31 10:02:22;;;;;;;9.17;5.50;;;;;;;;;;4980202;28;20449;-56
2022/10/31 10:04:58;;;;;;;7.67;5.60;;;;;;;;;;4960920;28;21326;-56
2022/10/31 10:07:30;;;;;;;12.43;6.00;;;;;;;;;;4984561;28;20477;-56
2022/10/31 10:09:56;;;;;;;8.20;6.10;;;;;;;;;;4967088;28;21297;-55
2022/10/31 10:12:34;;;;;;;7.33;5.43;;;;;;;;;;4987953;28;20528;-57
2022/10/31 10:15:19;;;;;;;7.30;5.53;;;;;;;;;;4980726;28;21328;-55
2022/10/31 10:18:00;;;;;;;9.27;6.10;;;;;;;;;;4988394;28;20777;-55
2022/10/31 10:20:45;;;;;;;11.87;6.50;;;;;;;;;;4960722;28;20467;-56
2022/10/31 10:23:30;;;;;;;8.40;5.27;;;;;;;;;;4983023;28;20464;-56
2022/10/31 10:26:01;;;;;;;14.23;5.30;;;;;;;;;;4964761;28;20480;-57
2022/10/31 10:28:28;;;;;;;12.27;5.77;;;;;;;;;;4986320;28;20533;-57
2022/10/31 10:31:02;;;;;;;7.07;5.00;;;;;;;;;;4978959;28;20453;-57
2022/10/31 10:33:29;;;;;;;9.87;5.70;;;;;;;;;;4991861;28;20464;-57
2022/10/31 10:35:56;;;;;;;6.53;5.00;;;;;;;;;;4950545;28;20441;-57
2022/10/31 10:38:35;;;;;;;8.87;4.77;;;;;;;;;;4995092;28;20428;-56
2022/10/31 10:41:02;;;;;;;11.50;7.10;;;;;;;;;;4990029;28;20464;-54
2022/10/31 10:43:35;;;;;;;12.07;5.07;;;;;;;;;;4986732;28;20454;-57
2022/10/31 10:48:56;;;;;;;11.17;6.07;;;;;;;;;;4989758;28;20811;-57
2022/10/31 10:51:23;;;;;;;11.47;7.40;;;;;;;;;;4967316;28;20839;-57
2022/10/31 10:54:00;;;;;;;12.30;6.70;;;;;;;;;;4994603;28;20504;-57
2022/10/31 10:56:35;;;;;;;8.10;6.13;;;;;;;;;;4963687;28;20495;-56
2022/10/31 10:59:01;;;;;;;7.80;5.97;;;;;;;;;;4988456;28;20516;-56
2022/10/31 11:01:27;;;;;;;11.13;6.97;;;;;;;;;;4950747;28;20456;-57
2022/10/31 11:03:53;;;;;;;9.07;5.80;;;;;;;;;;4978598;28;20480;-56
2022/10/31 11:06:22;;;;;;;10.60;6.30;;;;;;;;;;4943694;28;20272;-54
2022/10/31 11:08:48;;;;;;;11.33;6.93;;;;;;;;;;4982840;28;20530;-56
2022/10/31 11:11:17;;;;;;;10.03;6.90;;;;;;;;;;4959391;28;20441;-56
2022/10/31 11:13:43;;;;;;;12.20;6.80;;;;;;;;;;4985305;28;20441;-55
2022/10/31 11:16:10;;;;;;;9.47;7.33;;;;;;;;;;4958001;28;21233;-57
2022/10/31 11:18:42;;;;;;;10.67;7.20;;;;;;;;;;4983552;28;20453;-56
2022/10/31 11:21:17;;;;;;;10.67;6.60;;;;;;;;;;4958033;28;20563;-58
2022/10/31 11:23:43;;;;;;;14.77;6.93;;;;;;;;;;4983460;28;20440;-54
2022/10/31 11:26:18;;;;;;;10.50;6.67;;;;;;;;;;4957984;28;20476;-55
2022/10/31 11:28:44;;;;;;;10.93;6.80;;;;;;;;;;4981932;28;20511;-57
2022/10/31 11:31:13;;;;;;;8.17;6.20;;;;;;;;;;4943234;28;20442;-56
2022/10/31 11:33:41;;;;;;;9.10;7.13;;;;;;;;;;4978318;28;20445;-56
2022/10/31 11:36:26;;;;;;;9.47;6.33;;;;;;;;;;4967065;28;21017;-57
2022/10/31 11:38:52;;;;;;;9.00;6.03;;;;;;;;;;4977505;28;20464;-56
2022/10/31 11:41:19;;;;;;;16.60;6.77;;;;;;;;;;4952745;28;20452;-55
2022/10/31 11:43:52;;;;;;;9.33;6.30;;;;;;;;;;4990555;28;20445;-56
2022/10/31 11:46:21;;;;;;;12.10;9.00;;;;;;;;;;4956438;28;20480;-55
2022/10/31 11:48:47;;;;;;;6.63;5.87;;;;;;;;;;4977975;28;20437;-56
2022/10/31 11:51:13;;;;;;;7.47;6.27;;;;;;;;;;4957399;28;20456;-56
2022/10/31 11:53:48;;;;;;;8.17;6.80;;;;;;;;;;4982823;28;20812;-53
2022/10/31 11:56:14;;;;;;;12.23;6.70;;;;;;;;;;4983671;28;20429;-55
2022/10/31 11:58:40;;;;;;;9.80;6.20;;;;;;;;;;4981467;28;20448;-54
2022/10/31 12:01:06;;;;;;;10.03;7.63;;;;;;;;;;4958003;28;20449;-55
2022/10/31 12:03:32;;;;;;;10.23;5.80;;;;;;;;;;4980559;28;20441;-55
2022/10/31 12:05:59;;;;;;;7.77;6.10;;;;;;;;;;4980436;28;20484;-55
2022/10/31 12:08:26;;;;;;;9.40;5.97;;;;;;;;;;4982883;28;20444;-54
2022/10/31 12:11:11;;;;;;;7.90;6.40;;;;;;;;;;4950493;28;21000;-55
2022/10/31 12:13:38;;;;;;;8.43;5.87;;;;;;;;;;4985871;28;20461;-56
2022/10/31 12:16:13;;;;;;;7.90;5.50;;;;;;;;;;4979050;28;20767;-55
2022/10/31 12:18:42;;;;;;;15.87;6.73;;;;;;;;;;4991140;28;20425;-55
2022/10/31 12:21:17;;;;;;;9.03;6.90;;;;;;;;;;4922792;28;21006;-55
2022/10/31 12:23:46;;;;;;;8.50;6.53;;;;;;;;;;4980812;28;20533;-55
2022/10/31 12:26:31;;;;;;;7.63;5.90;;;;;;;;;;4978774;28;21110;-55
2022/10/31 12:29:15;;;;;;;12.20;6.20;;;;;;;;;;4985769;28;22939;-55
2022/10/31 12:32:00;;;;;;;8.77;5.97;;;;;;;;;;4950117;28;20576;-59
2022/10/31 12:34:32;;;;;;;12.50;6.70;;;;;;;;;;4984683;28;20436;-55
2022/10/31 12:37:09;;;;;;;8.57;6.13;;;;;;;;;;4978699;28;20943;-55
2022/10/31 12:43:12;;;;;;;6.73;6.00;;;;;;;;;;4981620;28;20527;-56
2022/10/31 12:45:54;;;;;;;12.90;7.10;;;;;;;;;;4978184;28;21165;-55
2022/10/31 12:48:39;;;;;;;8.80;5.20;;;;;;;;;;4984439;28;20499;-55
2022/10/31 12:51:11;;;;;;;8.00;5.73;;;;;;;;;;4954830;28;20464;-54
2022/10/31 12:53:53;;;;;;;12.23;6.50;;;;;;;;;;4982757;28;20441;-54
2022/10/31 12:56:22;;;;;;;10.03;6.17;;;;;;;;;;4949337;28;20523;-55
2022/10/31 12:58:59;;;;;;;10.73;6.50;;;;;;;;;;4980804;28;20448;-55
2022/10/31 13:01:25;;;;;;;8.47;5.83;;;;;;;;;;4956366;28;20436;-55
2022/10/31 13:03:57;;;;;;;9.00;6.60;;;;;;;;;;4978183;28;20452;-57
2022/10/31 13:06:24;;;;;;;10.13;6.80;;;;;;;;;;4991719;28;20575;-55
2022/10/31 13:08:51;;;;;;;8.47;7.00;;;;;;;;;;4980248;28;20438;-54
2022/10/31 13:11:19;;;;;;;10.70;7.03;;;;;;;;;;4950937;28;20473;-53
2022/10/31 13:13:51;;;;;;;9.10;6.40;;;;;;;;;;4986867;28;20527;-57
2022/10/31 13:16:17;;;;;;;10.40;6.13;;;;;;;;;;4977643;28;20455;-57
2022/10/31 13:18:45;;;;;;;6.97;5.80;;;;;;;;;;4983672;28;20535;-56
2022/10/31 13:21:13;;;;;;;9.43;6.73;;;;;;;;;;4966240;28;20873;-57
2022/10/31 13:23:39;;;;;;;13.53;7.60;;;;;;;;;;4981415;28;20954;-57
2022/10/31 13:26:16;;;;;;;13.00;7.77;;;;;;;;;;4955499;28;20546;-56
2022/10/31 13:28:44;;;;;;;10.70;6.67;;;;;;;;;;4981485;28;20502;-55
2022/10/31 13:31:10;;;;;;;11.70;6.80;;;;;;;;;;4963732;28;20441;-55
2022/10/31 13:33:40;;;;;;;11.40;6.70;;;;;;;;;;4992035;28;21703;-55
2022/10/31 13:36:26;;;;;;;10.60;8.10;;;;;;;;;;4953460;28;20460;-55
2022/10/31 13:39:11;;;;;;;8.50;7.20;;;;;;;;;;4981257;28;20475;-55
2022/10/31 13:41:40;;;;;;;10.67;7.60;;;;;;;;;;4948829;28;20469;-56
2022/10/31 13:44:10;;;;;;;12.50;8.00;;;;;;;;;;4980844;28;20444;-55
2022/10/31 13:46:37;;;;;;;15.57;9.10;;;;;;;;;;4970685;28;20508;-55
2022/10/31 13:49:04;;;;;;;10.67;7.77;;;;;;;;;;4981964;28;20913;-56
2022/10/31 13:51:30;;;;;;;9.90;7.20;;;;;;;;;;4972359;28;21048;-56
2022/10/31 13:53:58;;;;;;;9.97;6.87;;;;;;;;;;4977976;28;20436;-58
2022/10/31 13:56:25;;;;;;;11.60;7.00;;;;;;;;;;4947995;28;20491;-55
2022/10/31 13:59:14;;;;;;;14.03;8.53;;;;;;;;;;4985236;28;20442;-55
2022/10/31 14:02:07;;;;;;;16.87;8.17;;;;;;;;;;4968241;28;20449;-56
2022/10/31 14:04:37;;;;;;;9.80;7.53;;;;;;;;;;4983991;28;20445;-56
2022/10/31 14:07:10;;;;;;;19.50;7.43;;;;;;;;;;4977385;28;20523;-56
2022/10/31 14:09:42;;;;;;;7.00;5.90;;;;;;;;;;4977283;28;20485;-57
2022/10/31 14:12:10;;;;;;;8.40;7.10;;;;;;;;;;4968145;28;20508;-56
2022/10/31 14:17:59;;;;;;;11.23;7.77;;;;;;;;;;4984727;28;20803;-56
2022/10/31 14:20:33;;;;;;;10.00;7.60;;;;;;;;;;4971129;28;20506;-55
2022/10/31 14:22:59;;;;;;;17.97;8.00;;;;;;;;;;4961611;28;20453;-55
2022/10/31 14:25:26;;;;;;;13.10;7.47;;;;;;;;;;4981162;28;20452;-56
2022/10/31 14:27:52;;;;;;;10.40;7.77;;;;;;;;;;4957213;28;21005;-56
2022/10/31 14:30:19;;;;;;;7.73;6.53;;;;;;;;;;4969990;28;21702;-55
2022/10/31 14:32:45;;;;;;;12.90;9.10;;;;;;;;;;4960761;28;20812;-55
2022/10/31 14:35:13;;;;;;;11.83;7.17;;;;;;;;;;4982047;28;20444;-56
2022/10/31 14:37:39;;;;;;;7.10;6.20;;;;;;;;;;4961094;28;20190;-56
2022/10/31 14:40:06;;;;;;;12.80;6.90;;;;;;;;;;4982843;28;20852;-54
2022/10/31 14:42:51;;;;;;;13.33;6.53;;;;;;;;;;4959939;28;20524;-56
2022/10/31 14:45:48;;;;;;;7.57;6.43;;;;;;;;;;4980563;28;20436;-57
2022/10/31 14:48:22;;;;;;;14.37;7.40;;;;;;;;;;4975558;28;20464;-56
2022/10/31 14:50:58;;;;;;;9.67;7.13;;;;;;;;;;4962884;28;20451;-56
2022/10/31 14:53:25;;;;;;;10.63;6.50;;;;;;;;;;4979675;28;20437;-56
2022/10/31 14:55:52;;;;;;;13.37;7.60;;;;;;;;;;4982752;28;20519;-55
2022/10/31 14:58:20;;;;;;;13.10;7.60;;;;;;;;;;4987425;28;20449;-57